sensor_id;sensor_type;location;lat;lon;timestamp;P1;durP1;ratioP1;P2;durP2;ratioP2
20181;SDS011;10250;50.756;6.172;2023-02-19T00:01:10;6.33;;;1.60;;
20181;SDS011;10250;50.756;6.172;2023-02-19T00:03:11;5.57;;;1.87;;
20181;SDS011;10250;50.756;6.172;2023-02-19T00:05:12;7.37;;;1.80;;
20181;SDS011;10250;50.756;6.172;2023-02-19T00:07:13;5.00;;;1.57;;
20181;SDS011;10250;50.756;6.172;2023-02-19T00:09:15;6.43;;;1.80;;
20181;SDS011;10250;50.756;6.172;2023-02-19T00:11:18;9.13;;;2.07;;
20181;SDS011;10250;50.756;6.172;2023-02-19T00:13:19;6.10;;;1.57;;
20181;SDS011;10250;50.756;6.172;2023-02-19T00:15:20;8.83;;;1.73;;
20181;SDS011;10250;50.756;6.172;2023-02-19T00:17:21;6.37;;;1.90;;
20181;SDS011;10250;50.756;6.172;2023-02-19T00:19:22;7.17;;;1.83;;
20181;SDS011;10250;50.756;6.172;2023-02-19T00:21:23;4.70;;;1.50;;
20181;SDS011;10250;50.756;6.172;2023-02-19T00:23:25;3.37;;;1.37;;
20181;SDS011;10250;50.756;6.172;2023-02-19T00:25:26;3.53;;;1.17;;
20181;SDS011;10250;50.756;6.172;2023-02-19T00:27:27;6.10;;;1.67;;
20181;SDS011;10250;50.756;6.172;2023-02-19T00:29:29;4.77;;;1.47;;
20181;SDS011;10250;50.756;6.172;2023-02-19T00:31:30;3.27;;;1.17;;
20181;SDS011;10250;50.756;6.172;2023-02-19T00:33:32;5.07;;;1.23;;
20181;SDS011;10250;50.756;6.172;2023-02-19T00:35:33;3.03;;;1.20;;
20181;SDS011;10250;50.756;6.172;2023-02-19T00:37:34;4.53;;;1.30;;
20181;SDS011;10250;50.756;6.172;2023-02-19T00:39:35;4.40;;;1.40;;
20181;SDS011;10250;50.756;6.172;2023-02-19T00:41:36;4.00;;;1.27;;
20181;SDS011;10250;50.756;6.172;2023-02-19T00:43:37;3.47;;;0.90;;
20181;SDS011;10250;50.756;6.172;2023-02-19T00:45:38;4.50;;;1.07;;
20181;SDS011;10250;50.756;6.172;2023-02-19T00:47:39;4.40;;;1.17;;
20181;SDS011;10250;50.756;6.172;2023-02-19T00:49:40;3.07;;;0.90;;
20181;SDS011;10250;50.756;6.172;2023-02-19T00:51:41;4.20;;;1.20;;
20181;SDS011;10250;50.756;6.172;2023-02-19T00:53:42;3.03;;;1.03;;
20181;SDS011;10250;50.756;6.172;2023-02-19T00:55:43;3.37;;;1.00;;
20181;SDS011;10250;50.756;6.172;2023-02-19T00:57:44;2.67;;;0.90;;
20181;SDS011;10250;50.756;6.172;2023-02-19T00:59:45;3.03;;;1.00;;
20181;SDS011;10250;50.756;6.172;2023-02-19T01:01:46;5.13;;;1.30;;
20181;SDS011;10250;50.756;6.172;2023-02-19T01:03:48;4.57;;;1.30;;
20181;SDS011;10250;50.756;6.172;2023-02-19T01:05:49;3.97;;;1.13;;
20181;SDS011;10250;50.756;6.172;2023-02-19T01:07:50;2.47;;;1.00;;
20181;SDS011;10250;50.756;6.172;2023-02-19T01:09:51;4.50;;;1.47;;
20181;SDS011;10250;50.756;6.172;2023-02-19T01:11:52;4.23;;;1.30;;
20181;SDS011;10250;50.756;6.172;2023-02-19T01:13:57;4.57;;;1.37;;
20181;SDS011;10250;50.756;6.172;2023-02-19T01:16:40;5.57;;;1.57;;
20181;SDS011;10250;50.756;6.172;2023-02-19T01:18:26;4.83;;;1.40;;
20181;SDS011;10250;50.756;6.172;2023-02-19T01:20:27;3.87;;;1.10;;
20181;SDS011;10250;50.756;6.172;2023-02-19T01:22:28;5.33;;;1.70;;
20181;SDS011;10250;50.756;6.172;2023-02-19T01:24:29;3.80;;;1.40;;
20181;SDS011;10250;50.756;6.172;2023-02-19T01:26:30;4.90;;;1.40;;
20181;SDS011;10250;50.756;6.172;2023-02-19T01:28:32;4.87;;;1.43;;
20181;SDS011;10250;50.756;6.172;2023-02-19T01:30:34;3.90;;;1.03;;
20181;SDS011;10250;50.756;6.172;2023-02-19T01:32:36;4.10;;;1.03;;
20181;SDS011;10250;50.756;6.172;2023-02-19T01:34:36;4.63;;;1.23;;
20181;SDS011;10250;50.756;6.172;2023-02-19T01:36:37;2.77;;;1.10;;
20181;SDS011;10250;50.756;6.172;2023-02-19T01:38:39;2.63;;;1.00;;
20181;SDS011;10250;50.756;6.172;2023-02-19T01:40:40;4.90;;;1.30;;
20181;SDS011;10250;50.756;6.172;2023-02-19T01:42:41;3.47;;;1.00;;
20181;SDS011;10250;50.756;6.172;2023-02-19T01:46:47;3.87;;;0.93;;
20181;SDS011;10250;50.756;6.172;2023-02-19T01:48:50;1.83;;;0.90;;
20181;SDS011;10250;50.756;6.172;2023-02-19T01:50:53;1.33;;;0.70;;
20181;SDS011;10250;50.756;6.172;2023-02-19T01:52:56;4.03;;;1.30;;
20181;SDS011;10250;50.756;6.172;2023-02-19T01:54:59;5.73;;;1.37;;
20181;SDS011;10250;50.756;6.172;2023-02-19T01:57:02;4.27;;;1.20;;
20181;SDS011;10250;50.756;6.172;2023-02-19T01:59:04;6.60;;;1.50;;
20181;SDS011;10250;50.756;6.172;2023-02-19T02:01:06;6.83;;;1.53;;
20181;SDS011;10250;50.756;6.172;2023-02-19T02:03:08;6.60;;;1.63;;
20181;SDS011;10250;50.756;6.172;2023-02-19T02:05:11;8.93;;;1.90;;
20181;SDS011;10250;50.756;6.172;2023-02-19T02:07:14;5.90;;;1.83;;
20181;SDS011;10250;50.756;6.172;2023-02-19T02:09:33;8.77;;;2.00;;
20181;SDS011;10250;50.756;6.172;2023-02-19T02:11:52;6.40;;;1.93;;
20181;SDS011;10250;50.756;6.172;2023-02-19T02:13:53;7.10;;;2.00;;
20181;SDS011;10250;50.756;6.172;2023-02-19T02:18:07;7.30;;;1.90;;
20181;SDS011;10250;50.756;6.172;2023-02-19T02:22:15;7.60;;;2.20;;
20181;SDS011;10250;50.756;6.172;2023-02-19T02:30:58;8.03;;;1.93;;
20181;SDS011;10250;50.756;6.172;2023-02-19T02:35:12;10.00;;;2.57;;
20181;SDS011;10250;50.756;6.172;2023-02-19T02:37:18;9.50;;;2.57;;
20181;SDS011;10250;50.756;6.172;2023-02-19T02:39:19;9.97;;;2.50;;
20181;SDS011;10250;50.756;6.172;2023-02-19T02:41:22;11.07;;;2.53;;
20181;SDS011;10250;50.756;6.172;2023-02-19T02:43:23;7.33;;;1.80;;
20181;SDS011;10250;50.756;6.172;2023-02-19T02:45:25;7.60;;;1.93;;
20181;SDS011;10250;50.756;6.172;2023-02-19T02:47:36;12.37;;;2.37;;
20181;SDS011;10250;50.756;6.172;2023-02-19T02:49:43;10.33;;;2.10;;
20181;SDS011;10250;50.756;6.172;2023-02-19T02:52:04;8.97;;;2.13;;
20181;SDS011;10250;50.756;6.172;2023-02-19T02:54:25;9.70;;;2.43;;
20181;SDS011;10250;50.756;6.172;2023-02-19T02:56:47;7.90;;;1.80;;
20181;SDS011;10250;50.756;6.172;2023-02-19T02:58:49;9.20;;;2.43;;
20181;SDS011;10250;50.756;6.172;2023-02-19T03:00:54;11.97;;;2.43;;
20181;SDS011;10250;50.756;6.172;2023-02-19T03:03:14;8.20;;;2.13;;
20181;SDS011;10250;50.756;6.172;2023-02-19T03:05:19;10.27;;;2.90;;
20181;SDS011;10250;50.756;6.172;2023-02-19T03:07:52;9.07;;;2.27;;
20181;SDS011;10250;50.756;6.172;2023-02-19T03:09:54;7.70;;;2.37;;
20181;SDS011;10250;50.756;6.172;2023-02-19T03:11:56;8.33;;;1.93;;
20181;SDS011;10250;50.756;6.172;2023-02-19T03:14:21;11.33;;;2.67;;
20181;SDS011;10250;50.756;6.172;2023-02-19T03:16:42;9.40;;;2.30;;
20181;SDS011;10250;50.756;6.172;2023-02-19T03:19:03;9.90;;;2.23;;
20181;SDS011;10250;50.756;6.172;2023-02-19T03:21:20;10.53;;;2.47;;
20181;SDS011;10250;50.756;6.172;2023-02-19T03:23:23;8.40;;;2.40;;
20181;SDS011;10250;50.756;6.172;2023-02-19T03:25:45;8.93;;;2.17;;
20181;SDS011;10250;50.756;6.172;2023-02-19T03:28:03;11.73;;;2.43;;
20181;SDS011;10250;50.756;6.172;2023-02-19T03:30:07;13.23;;;2.87;;
20181;SDS011;10250;50.756;6.172;2023-02-19T03:32:14;8.77;;;2.20;;
20181;SDS011;10250;50.756;6.172;2023-02-19T03:34:19;10.70;;;2.50;;
20181;SDS011;10250;50.756;6.172;2023-02-19T03:36:22;8.87;;;2.00;;
20181;SDS011;10250;50.756;6.172;2023-02-19T03:38:32;9.97;;;2.67;;
20181;SDS011;10250;50.756;6.172;2023-02-19T03:40:54;10.43;;;2.40;;
20181;SDS011;10250;50.756;6.172;2023-02-19T03:43:04;7.87;;;2.10;;
20181;SDS011;10250;50.756;6.172;2023-02-19T03:49:12;8.70;;;2.40;;
20181;SDS011;10250;50.756;6.172;2023-02-19T03:53:29;13.30;;;2.60;;
20181;SDS011;10250;50.756;6.172;2023-02-19T03:57:41;9.87;;;2.00;;
20181;SDS011;10250;50.756;6.172;2023-02-19T04:01:55;10.03;;;2.30;;
20181;SDS011;10250;50.756;6.172;2023-02-19T04:04:08;10.07;;;2.30;;
20181;SDS011;10250;50.756;6.172;2023-02-19T04:06:16;9.43;;;2.10;;
20181;SDS011;10250;50.756;6.172;2023-02-19T04:08:18;10.87;;;2.37;;
20181;SDS011;10250;50.756;6.172;2023-02-19T04:10:20;10.13;;;2.40;;
20181;SDS011;10250;50.756;6.172;2023-02-19T04:12:22;10.27;;;2.47;;
20181;SDS011;10250;50.756;6.172;2023-02-19T04:14:31;10.40;;;2.67;;
20181;SDS011;10250;50.756;6.172;2023-02-19T04:16:36;10.30;;;2.30;;
20181;SDS011;10250;50.756;6.172;2023-02-19T04:18:39;10.27;;;2.40;;
20181;SDS011;10250;50.756;6.172;2023-02-19T04:20:41;9.47;;;2.13;;
20181;SDS011;10250;50.756;6.172;2023-02-19T04:22:43;8.23;;;2.07;;
20181;SDS011;10250;50.756;6.172;2023-02-19T04:24:48;9.00;;;2.27;;
20181;SDS011;10250;50.756;6.172;2023-02-19T04:26:50;7.93;;;2.30;;
20181;SDS011;10250;50.756;6.172;2023-02-19T04:28:51;9.33;;;2.33;;
20181;SDS011;10250;50.756;6.172;2023-02-19T04:30:53;8.63;;;2.10;;
20181;SDS011;10250;50.756;6.172;2023-02-19T04:32:54;11.03;;;2.50;;
20181;SDS011;10250;50.756;6.172;2023-02-19T04:34:55;8.80;;;2.07;;
20181;SDS011;10250;50.756;6.172;2023-02-19T04:36:56;11.37;;;2.80;;
20181;SDS011;10250;50.756;6.172;2023-02-19T04:38:57;11.03;;;2.47;;
20181;SDS011;10250;50.756;6.172;2023-02-19T04:40:58;8.77;;;2.43;;
20181;SDS011;10250;50.756;6.172;2023-02-19T04:42:59;12.53;;;2.90;;
20181;SDS011;10250;50.756;6.172;2023-02-19T04:45:00;10.57;;;2.57;;
20181;SDS011;10250;50.756;6.172;2023-02-19T04:47:01;10.20;;;2.47;;
20181;SDS011;10250;50.756;6.172;2023-02-19T04:49:02;8.93;;;2.60;;
20181;SDS011;10250;50.756;6.172;2023-02-19T04:51:04;9.40;;;2.60;;
20181;SDS011;10250;50.756;6.172;2023-02-19T04:53:05;8.07;;;2.33;;
20181;SDS011;10250;50.756;6.172;2023-02-19T04:55:07;14.10;;;3.43;;
20181;SDS011;10250;50.756;6.172;2023-02-19T04:57:08;11.40;;;2.73;;
20181;SDS011;10250;50.756;6.172;2023-02-19T04:59:09;10.40;;;2.60;;
20181;SDS011;10250;50.756;6.172;2023-02-19T05:01:10;8.90;;;2.43;;
20181;SDS011;10250;50.756;6.172;2023-02-19T05:03:11;12.13;;;2.67;;
20181;SDS011;10250;50.756;6.172;2023-02-19T05:05:12;15.17;;;3.30;;
20181;SDS011;10250;50.756;6.172;2023-02-19T05:07:13;12.43;;;3.30;;
20181;SDS011;10250;50.756;6.172;2023-02-19T05:09:14;10.80;;;2.77;;
20181;SDS011;10250;50.756;6.172;2023-02-19T05:11:15;11.03;;;2.63;;
20181;SDS011;10250;50.756;6.172;2023-02-19T05:13:16;11.13;;;2.23;;
20181;SDS011;10250;50.756;6.172;2023-02-19T05:15:17;10.83;;;2.67;;
20181;SDS011;10250;50.756;6.172;2023-02-19T05:17:18;11.93;;;3.03;;
20181;SDS011;10250;50.756;6.172;2023-02-19T05:19:19;9.10;;;2.43;;
20181;SDS011;10250;50.756;6.172;2023-02-19T05:21:20;13.07;;;2.57;;
20181;SDS011;10250;50.756;6.172;2023-02-19T05:23:21;11.17;;;2.33;;
20181;SDS011;10250;50.756;6.172;2023-02-19T05:25:22;7.13;;;2.20;;
20181;SDS011;10250;50.756;6.172;2023-02-19T05:27:23;11.03;;;2.73;;
20181;SDS011;10250;50.756;6.172;2023-02-19T05:29:24;9.90;;;2.50;;
20181;SDS011;10250;50.756;6.172;2023-02-19T05:31:25;9.73;;;2.50;;
20181;SDS011;10250;50.756;6.172;2023-02-19T05:33:26;10.03;;;2.67;;
20181;SDS011;10250;50.756;6.172;2023-02-19T05:35:27;11.13;;;2.77;;
20181;SDS011;10250;50.756;6.172;2023-02-19T05:37:28;11.33;;;2.27;;
20181;SDS011;10250;50.756;6.172;2023-02-19T05:39:29;11.00;;;2.40;;
20181;SDS011;10250;50.756;6.172;2023-02-19T05:41:30;9.47;;;2.23;;
20181;SDS011;10250;50.756;6.172;2023-02-19T05:43:31;9.73;;;2.20;;
20181;SDS011;10250;50.756;6.172;2023-02-19T05:45:32;12.27;;;2.47;;
20181;SDS011;10250;50.756;6.172;2023-02-19T05:47:34;6.20;;;1.77;;
20181;SDS011;10250;50.756;6.172;2023-02-19T05:49:35;11.20;;;2.77;;
20181;SDS011;10250;50.756;6.172;2023-02-19T05:51:36;12.97;;;2.70;;
20181;SDS011;10250;50.756;6.172;2023-02-19T05:53:37;10.60;;;2.70;;
20181;SDS011;10250;50.756;6.172;2023-02-19T05:55:38;9.07;;;2.23;;
20181;SDS011;10250;50.756;6.172;2023-02-19T05:57:40;10.23;;;2.60;;
20181;SDS011;10250;50.756;6.172;2023-02-19T05:59:41;8.90;;;2.10;;
20181;SDS011;10250;50.756;6.172;2023-02-19T06:01:42;11.13;;;2.20;;
20181;SDS011;10250;50.756;6.172;2023-02-19T06:03:43;10.43;;;2.40;;
20181;SDS011;10250;50.756;6.172;2023-02-19T06:05:44;9.03;;;2.37;;
20181;SDS011;10250;50.756;6.172;2023-02-19T06:07:45;10.07;;;2.37;;
20181;SDS011;10250;50.756;6.172;2023-02-19T06:09:48;9.07;;;2.40;;
20181;SDS011;10250;50.756;6.172;2023-02-19T06:11:50;9.50;;;2.30;;
20181;SDS011;10250;50.756;6.172;2023-02-19T06:13:51;7.93;;;2.37;;
20181;SDS011;10250;50.756;6.172;2023-02-19T06:15:52;12.50;;;2.37;;
20181;SDS011;10250;50.756;6.172;2023-02-19T06:17:53;8.27;;;2.00;;
20181;SDS011;10250;50.756;6.172;2023-02-19T06:19:54;12.17;;;2.40;;
20181;SDS011;10250;50.756;6.172;2023-02-19T06:21:54;9.37;;;1.93;;
20181;SDS011;10250;50.756;6.172;2023-02-19T06:23:55;10.57;;;2.47;;
20181;SDS011;10250;50.756;6.172;2023-02-19T06:28:09;9.07;;;2.60;;
20181;SDS011;10250;50.756;6.172;2023-02-19T06:30:10;7.37;;;2.07;;
20181;SDS011;10250;50.756;6.172;2023-02-19T06:32:11;12.00;;;2.53;;
20181;SDS011;10250;50.756;6.172;2023-02-19T06:34:12;11.93;;;2.47;;
20181;SDS011;10250;50.756;6.172;2023-02-19T06:36:14;11.07;;;2.70;;
20181;SDS011;10250;50.756;6.172;2023-02-19T06:38:16;10.73;;;2.43;;
20181;SDS011;10250;50.756;6.172;2023-02-19T06:40:17;8.83;;;2.20;;
20181;SDS011;10250;50.756;6.172;2023-02-19T06:42:18;9.57;;;2.27;;
20181;SDS011;10250;50.756;6.172;2023-02-19T06:44:19;10.83;;;2.77;;
20181;SDS011;10250;50.756;6.172;2023-02-19T06:46:20;12.80;;;2.83;;
20181;SDS011;10250;50.756;6.172;2023-02-19T06:48:21;10.87;;;2.60;;
20181;SDS011;10250;50.756;6.172;2023-02-19T06:50:22;10.07;;;2.73;;
20181;SDS011;10250;50.756;6.172;2023-02-19T06:52:23;8.93;;;2.37;;
20181;SDS011;10250;50.756;6.172;2023-02-19T06:54:24;7.77;;;2.30;;
20181;SDS011;10250;50.756;6.172;2023-02-19T06:56:29;11.43;;;2.60;;
20181;SDS011;10250;50.756;6.172;2023-02-19T06:58:30;9.87;;;2.97;;
20181;SDS011;10250;50.756;6.172;2023-02-19T07:00:31;14.40;;;2.90;;
20181;SDS011;10250;50.756;6.172;2023-02-19T07:02:33;10.30;;;2.73;;
20181;SDS011;10250;50.756;6.172;2023-02-19T07:04:34;10.93;;;2.67;;
20181;SDS011;10250;50.756;6.172;2023-02-19T07:06:35;11.33;;;2.87;;
20181;SDS011;10250;50.756;6.172;2023-02-19T07:08:36;10.50;;;2.53;;
20181;SDS011;10250;50.756;6.172;2023-02-19T07:10:37;12.50;;;2.70;;
20181;SDS011;10250;50.756;6.172;2023-02-19T07:12:38;10.30;;;2.80;;
20181;SDS011;10250;50.756;6.172;2023-02-19T07:14:39;9.70;;;2.63;;
20181;SDS011;10250;50.756;6.172;2023-02-19T07:16:40;11.37;;;2.57;;
20181;SDS011;10250;50.756;6.172;2023-02-19T07:18:41;10.27;;;2.50;;
20181;SDS011;10250;50.756;6.172;2023-02-19T07:20:42;14.17;;;3.07;;
20181;SDS011;10250;50.756;6.172;2023-02-19T07:22:43;12.03;;;2.60;;
20181;SDS011;10250;50.756;6.172;2023-02-19T07:24:44;13.80;;;3.50;;
20181;SDS011;10250;50.756;6.172;2023-02-19T07:26:45;9.97;;;2.40;;
20181;SDS011;10250;50.756;6.172;2023-02-19T07:28:47;14.10;;;2.80;;
20181;SDS011;10250;50.756;6.172;2023-02-19T07:30:48;10.87;;;2.43;;
20181;SDS011;10250;50.756;6.172;2023-02-19T07:32:49;11.80;;;2.60;;
20181;SDS011;10250;50.756;6.172;2023-02-19T07:34:50;8.50;;;2.40;;
20181;SDS011;10250;50.756;6.172;2023-02-19T07:36:51;11.77;;;2.23;;
20181;SDS011;10250;50.756;6.172;2023-02-19T07:38:55;9.30;;;2.07;;
20181;SDS011;10250;50.756;6.172;2023-02-19T07:40:58;11.30;;;2.90;;
20181;SDS011;10250;50.756;6.172;2023-02-19T07:42:59;8.10;;;2.30;;
20181;SDS011;10250;50.756;6.172;2023-02-19T07:45:00;13.57;;;2.60;;
20181;SDS011;10250;50.756;6.172;2023-02-19T07:47:01;10.93;;;2.67;;
20181;SDS011;10250;50.756;6.172;2023-02-19T07:49:02;15.13;;;2.87;;
20181;SDS011;10250;50.756;6.172;2023-02-19T07:51:04;10.60;;;2.30;;
20181;SDS011;10250;50.756;6.172;2023-02-19T07:53:05;12.57;;;2.30;;
20181;SDS011;10250;50.756;6.172;2023-02-19T07:55:06;10.13;;;2.70;;
20181;SDS011;10250;50.756;6.172;2023-02-19T07:57:07;11.10;;;2.70;;
20181;SDS011;10250;50.756;6.172;2023-02-19T07:59:08;11.07;;;2.57;;
20181;SDS011;10250;50.756;6.172;2023-02-19T08:01:11;15.83;;;2.73;;
20181;SDS011;10250;50.756;6.172;2023-02-19T08:03:13;11.77;;;2.47;;
20181;SDS011;10250;50.756;6.172;2023-02-19T08:05:14;12.17;;;2.50;;
20181;SDS011;10250;50.756;6.172;2023-02-19T08:07:15;11.27;;;3.07;;
20181;SDS011;10250;50.756;6.172;2023-02-19T08:09:16;11.80;;;2.73;;
20181;SDS011;10250;50.756;6.172;2023-02-19T08:11:17;8.97;;;2.07;;
20181;SDS011;10250;50.756;6.172;2023-02-19T08:13:37;8.70;;;2.37;;
20181;SDS011;10250;50.756;6.172;2023-02-19T08:15:38;16.17;;;3.07;;
20181;SDS011;10250;50.756;6.172;2023-02-19T08:17:39;13.23;;;3.17;;
20181;SDS011;10250;50.756;6.172;2023-02-19T08:19:40;17.83;;;3.33;;
20181;SDS011;10250;50.756;6.172;2023-02-19T08:21:41;11.00;;;2.87;;
20181;SDS011;10250;50.756;6.172;2023-02-19T08:23:42;10.17;;;2.87;;
20181;SDS011;10250;50.756;6.172;2023-02-19T08:25:43;11.63;;;3.17;;
20181;SDS011;10250;50.756;6.172;2023-02-19T08:27:44;11.10;;;2.30;;
20181;SDS011;10250;50.756;6.172;2023-02-19T08:29:45;10.80;;;2.77;;
20181;SDS011;10250;50.756;6.172;2023-02-19T08:31:46;11.00;;;2.37;;
20181;SDS011;10250;50.756;6.172;2023-02-19T08:33:47;13.13;;;3.03;;
20181;SDS011;10250;50.756;6.172;2023-02-19T08:35:47;12.67;;;2.57;;
20181;SDS011;10250;50.756;6.172;2023-02-19T08:37:48;11.27;;;3.17;;
20181;SDS011;10250;50.756;6.172;2023-02-19T08:39:49;11.57;;;2.93;;
20181;SDS011;10250;50.756;6.172;2023-02-19T08:41:50;10.53;;;2.47;;
20181;SDS011;10250;50.756;6.172;2023-02-19T08:43:51;13.60;;;2.83;;
20181;SDS011;10250;50.756;6.172;2023-02-19T08:45:52;10.97;;;2.93;;
20181;SDS011;10250;50.756;6.172;2023-02-19T08:47:54;10.77;;;2.60;;
20181;SDS011;10250;50.756;6.172;2023-02-19T08:49:55;11.13;;;3.03;;
20181;SDS011;10250;50.756;6.172;2023-02-19T08:51:56;11.53;;;2.80;;
20181;SDS011;10250;50.756;6.172;2023-02-19T08:53:57;11.30;;;2.83;;
20181;SDS011;10250;50.756;6.172;2023-02-19T08:55:58;11.03;;;2.70;;
20181;SDS011;10250;50.756;6.172;2023-02-19T08:57:59;10.53;;;2.63;;
20181;SDS011;10250;50.756;6.172;2023-02-19T09:00:00;8.87;;;2.57;;
20181;SDS011;10250;50.756;6.172;2023-02-19T09:02:01;9.23;;;2.57;;
20181;SDS011;10250;50.756;6.172;2023-02-19T09:04:02;12.00;;;3.10;;
20181;SDS011;10250;50.756;6.172;2023-02-19T09:06:03;13.83;;;3.03;;
20181;SDS011;10250;50.756;6.172;2023-02-19T09:08:04;13.73;;;3.37;;
20181;SDS011;10250;50.756;6.172;2023-02-19T09:10:05;12.27;;;3.23;;
20181;SDS011;10250;50.756;6.172;2023-02-19T09:12:06;12.37;;;2.70;;
20181;SDS011;10250;50.756;6.172;2023-02-19T09:14:08;13.33;;;2.77;;
20181;SDS011;10250;50.756;6.172;2023-02-19T09:16:09;7.83;;;2.23;;
20181;SDS011;10250;50.756;6.172;2023-02-19T09:18:10;10.70;;;2.40;;
20181;SDS011;10250;50.756;6.172;2023-02-19T09:20:11;8.80;;;1.93;;
20181;SDS011;10250;50.756;6.172;2023-02-19T09:22:12;8.67;;;2.40;;
20181;SDS011;10250;50.756;6.172;2023-02-19T09:24:13;11.57;;;2.80;;
20181;SDS011;10250;50.756;6.172;2023-02-19T09:26:14;11.10;;;2.60;;
20181;SDS011;10250;50.756;6.172;2023-02-19T09:28:15;9.43;;;2.33;;
20181;SDS011;10250;50.756;6.172;2023-02-19T09:30:16;10.00;;;2.53;;
20181;SDS011;10250;50.756;6.172;2023-02-19T09:32:17;8.33;;;2.17;;
20181;SDS011;10250;50.756;6.172;2023-02-19T09:34:18;6.30;;;1.70;;
20181;SDS011;10250;50.756;6.172;2023-02-19T09:36:19;9.97;;;2.40;;
20181;SDS011;10250;50.756;6.172;2023-02-19T09:38:20;11.90;;;2.70;;
20181;SDS011;10250;50.756;6.172;2023-02-19T09:40:21;11.17;;;2.63;;
20181;SDS011;10250;50.756;6.172;2023-02-19T09:42:26;10.57;;;2.60;;
20181;SDS011;10250;50.756;6.172;2023-02-19T09:48:30;13.40;;;3.07;;
20181;SDS011;10250;50.756;6.172;2023-02-19T09:50:33;13.53;;;2.70;;
20181;SDS011;10250;50.756;6.172;2023-02-19T09:52:37;8.80;;;2.20;;
20181;SDS011;10250;50.756;6.172;2023-02-19T09:54:39;8.50;;;2.70;;
20181;SDS011;10250;50.756;6.172;2023-02-19T09:56:41;7.93;;;2.23;;
20181;SDS011;10250;50.756;6.172;2023-02-19T09:58:46;9.43;;;2.13;;
20181;SDS011;10250;50.756;6.172;2023-02-19T10:00:47;9.43;;;2.10;;
20181;SDS011;10250;50.756;6.172;2023-02-19T10:02:50;12.43;;;2.80;;
20181;SDS011;10250;50.756;6.172;2023-02-19T10:04:51;10.37;;;2.30;;
20181;SDS011;10250;50.756;6.172;2023-02-19T10:06:52;12.30;;;2.83;;
20181;SDS011;10250;50.756;6.172;2023-02-19T10:09:04;11.60;;;3.10;;
20181;SDS011;10250;50.756;6.172;2023-02-19T10:11:10;11.00;;;2.63;;
20181;SDS011;10250;50.756;6.172;2023-02-19T10:13:18;7.87;;;2.13;;
20181;SDS011;10250;50.756;6.172;2023-02-19T10:17:30;10.60;;;2.50;;
20181;SDS011;10250;50.756;6.172;2023-02-19T10:19:33;12.37;;;2.93;;
20181;SDS011;10250;50.756;6.172;2023-02-19T10:21:35;10.50;;;2.47;;
20181;SDS011;10250;50.756;6.172;2023-02-19T10:23:38;9.50;;;2.50;;
20181;SDS011;10250;50.756;6.172;2023-02-19T10:25:41;11.13;;;3.03;;
20181;SDS011;10250;50.756;6.172;2023-02-19T10:27:43;9.93;;;2.53;;
20181;SDS011;10250;50.756;6.172;2023-02-19T10:29:45;13.50;;;2.70;;
20181;SDS011;10250;50.756;6.172;2023-02-19T10:31:47;9.43;;;2.57;;
20181;SDS011;10250;50.756;6.172;2023-02-19T10:33:49;8.33;;;2.40;;
20181;SDS011;10250;50.756;6.172;2023-02-19T10:35:51;8.37;;;1.83;;
20181;SDS011;10250;50.756;6.172;2023-02-19T10:37:53;9.97;;;2.27;;
20181;SDS011;10250;50.756;6.172;2023-02-19T10:39:54;6.13;;;1.90;;
20181;SDS011;10250;50.756;6.172;2023-02-19T10:41:55;13.53;;;2.47;;
20181;SDS011;10250;50.756;6.172;2023-02-19T10:46:15;6.93;;;1.80;;
20181;SDS011;10250;50.756;6.172;2023-02-19T10:48:23;8.60;;;2.47;;
20181;SDS011;10250;50.756;6.172;2023-02-19T10:50:25;8.27;;;2.07;;
20181;SDS011;10250;50.756;6.172;2023-02-19T10:52:28;8.07;;;2.33;;
20181;SDS011;10250;50.756;6.172;2023-02-19T10:54:33;9.03;;;2.57;;
20181;SDS011;10250;50.756;6.172;2023-02-19T10:56:35;10.90;;;2.50;;
20181;SDS011;10250;50.756;6.172;2023-02-19T10:58:37;11.07;;;2.07;;
20181;SDS011;10250;50.756;6.172;2023-02-19T11:00:41;9.00;;;2.63;;
20181;SDS011;10250;50.756;6.172;2023-02-19T11:02:42;10.67;;;2.20;;
20181;SDS011;10250;50.756;6.172;2023-02-19T11:07:18;9.87;;;2.40;;
20181;SDS011;10250;50.756;6.172;2023-02-19T11:09:32;10.83;;;2.83;;
20181;SDS011;10250;50.756;6.172;2023-02-19T11:11:36;8.87;;;2.17;;
20181;SDS011;10250;50.756;6.172;2023-02-19T11:13:37;10.10;;;2.43;;
20181;SDS011;10250;50.756;6.172;2023-02-19T11:15:41;10.50;;;2.60;;
20181;SDS011;10250;50.756;6.172;2023-02-19T11:17:42;10.53;;;2.57;;
20181;SDS011;10250;50.756;6.172;2023-02-19T11:19:44;10.43;;;2.73;;
20181;SDS011;10250;50.756;6.172;2023-02-19T11:21:47;14.90;;;3.27;;
20181;SDS011;10250;50.756;6.172;2023-02-19T11:23:48;10.13;;;2.53;;
20181;SDS011;10250;50.756;6.172;2023-02-19T11:25:50;7.00;;;2.10;;
20181;SDS011;10250;50.756;6.172;2023-02-19T11:27:57;11.43;;;2.70;;
20181;SDS011;10250;50.756;6.172;2023-02-19T11:34:26;10.70;;;2.67;;
20181;SDS011;10250;50.756;6.172;2023-02-19T11:36:34;11.43;;;2.97;;
20181;SDS011;10250;50.756;6.172;2023-02-19T11:38:35;11.63;;;3.40;;
20181;SDS011;10250;50.756;6.172;2023-02-19T11:40:42;10.57;;;3.10;;
20181;SDS011;10250;50.756;6.172;2023-02-19T11:42:45;10.33;;;2.57;;
20181;SDS011;10250;50.756;6.172;2023-02-19T11:51:12;9.07;;;2.50;;
20181;SDS011;10250;50.756;6.172;2023-02-19T11:53:31;9.50;;;2.10;;
20181;SDS011;10250;50.756;6.172;2023-02-19T11:55:35;6.47;;;1.77;;
20181;SDS011;10250;50.756;6.172;2023-02-19T12:12:25;9.07;;;2.10;;
20181;SDS011;10250;50.756;6.172;2023-02-19T12:17:17;8.10;;;2.10;;
20181;SDS011;10250;50.756;6.172;2023-02-19T12:25:26;9.80;;;2.17;;
20181;SDS011;10250;50.756;6.172;2023-02-19T12:46:58;11.07;;;2.80;;
20181;SDS011;10250;50.756;6.172;2023-02-19T12:53:15;7.47;;;2.07;;
20181;SDS011;10250;50.756;6.172;2023-02-19T12:55:21;11.70;;;2.77;;
20181;SDS011;10250;50.756;6.172;2023-02-19T12:57:24;8.63;;;2.20;;
20181;SDS011;10250;50.756;6.172;2023-02-19T12:59:37;8.60;;;2.20;;
20181;SDS011;10250;50.756;6.172;2023-02-19T13:01:45;12.67;;;2.70;;
20181;SDS011;10250;50.756;6.172;2023-02-19T13:03:50;8.90;;;2.17;;
20181;SDS011;10250;50.756;6.172;2023-02-19T13:05:54;9.70;;;2.13;;
20181;SDS011;10250;50.756;6.172;2023-02-19T13:08:20;8.93;;;2.30;;
20181;SDS011;10250;50.756;6.172;2023-02-19T13:10:32;9.13;;;2.00;;
20181;SDS011;10250;50.756;6.172;2023-02-19T13:12:39;9.13;;;2.20;;
20181;SDS011;10250;50.756;6.172;2023-02-19T13:14:43;5.63;;;1.67;;
20181;SDS011;10250;50.756;6.172;2023-02-19T13:16:47;10.37;;;2.27;;
20181;SDS011;10250;50.756;6.172;2023-02-19T13:18:54;9.43;;;2.20;;
20181;SDS011;10250;50.756;6.172;2023-02-19T13:20:56;8.77;;;1.80;;
20181;SDS011;10250;50.756;6.172;2023-02-19T13:23:03;7.80;;;1.93;;
20181;SDS011;10250;50.756;6.172;2023-02-19T13:25:31;8.83;;;2.10;;
20181;SDS011;10250;50.756;6.172;2023-02-19T13:36:40;9.20;;;2.40;;
20181;SDS011;10250;50.756;6.172;2023-02-19T13:38:42;14.00;;;3.07;;
20181;SDS011;10250;50.756;6.172;2023-02-19T13:40:54;11.37;;;2.70;;
20181;SDS011;10250;50.756;6.172;2023-02-19T13:43:06;11.53;;;2.90;;
20181;SDS011;10250;50.756;6.172;2023-02-19T13:45:19;7.40;;;1.97;;
20181;SDS011;10250;50.756;6.172;2023-02-19T13:49:40;11.07;;;2.30;;
20181;SDS011;10250;50.756;6.172;2023-02-19T13:51:46;11.10;;;2.50;;
20181;SDS011;10250;50.756;6.172;2023-02-19T13:53:54;8.23;;;1.63;;
20181;SDS011;10250;50.756;6.172;2023-02-19T13:55:56;9.60;;;2.40;;
20181;SDS011;10250;50.756;6.172;2023-02-19T14:02:36;9.40;;;2.50;;
20181;SDS011;10250;50.756;6.172;2023-02-19T14:09:03;9.80;;;2.40;;
20181;SDS011;10250;50.756;6.172;2023-02-19T14:11:04;10.53;;;2.27;;
20181;SDS011;10250;50.756;6.172;2023-02-19T14:13:06;9.67;;;2.70;;
20181;SDS011;10250;50.756;6.172;2023-02-19T14:19:50;10.03;;;2.57;;